Time;durP1;ratioP1;P1;durP2;ratioP2;P2;SDS_P1;SDS_P2;PMS_P1;PMS_P2;Temp;Humidity;BMP_temperature;BMP_pressure;BME280_temperature;BME280_humidity;BME280_pressure;Samples;Min_cycle;Max_cycle;Signal;HPM_P1;HPM_P2
2022/02/17 00:01:12;;;;;;;2.45;1.00;;;21.70;57.60;;;;;;4969187;28;93711;-84
2022/02/17 00:03:37;;;;;;;2.83;1.20;;;21.70;57.60;;;;;;4969690;28;92848;-86
2022/02/17 00:06:11;;;;;;;1.42;0.98;;;21.70;57.50;;;;;;4969269;28;92635;-84
2022/02/17 00:08:39;;;;;;;2.17;1.15;;;21.70;57.30;;;;;;4969004;28;92638;-86
2022/02/17 00:11:04;;;;;;;2.28;1.10;;;21.70;57.40;;;;;;4969379;28;91955;-85
2022/02/17 00:13:30;;;;;;;1.63;0.90;;;21.70;57.40;;;;;;4969024;28;92998;-86
2022/02/17 00:15:57;;;;;;;2.17;0.80;;;21.70;57.40;;;;;;4968279;28;92879;-84
2022/02/17 00:18:23;;;;;;;2.70;1.08;;;21.70;57.30;;;;;;4967826;28;95425;-87
2022/02/17 00:20:55;;;;;;;1.35;0.90;;;21.70;57.30;;;;;;4968941;28;92994;-83
2022/02/17 00:23:21;;;;;;;1.70;0.82;;;21.70;57.20;;;;;;4967985;28;92846;-81
2022/02/17 00:25:47;;;;;;;1.75;0.93;;;21.70;57.10;;;;;;4968239;28;93870;-84
2022/02/17 00:28:13;;;;;;;2.45;1.40;;;21.70;57.10;;;;;;4969035;28;93466;-87
2022/02/17 00:30:39;;;;;;;1.65;1.00;;;21.60;57.10;;;;;;4969047;28;91999;-84
2022/02/17 00:33:04;;;;;;;2.75;0.90;;;21.60;57.10;;;;;;4967765;28;92666;-82
2022/02/17 00:35:31;;;;;;;1.75;0.90;;;21.60;57.10;;;;;;4968055;28;92569;-82
2022/02/17 00:37:58;;;;;;;2.47;0.70;;;21.60;57.10;;;;;;4967705;28;92236;-84
2022/02/17 00:40:26;;;;;;;1.85;1.00;;;21.60;57.00;;;;;;4962597;28;92475;-84
2022/02/17 00:42:52;;;;;;;2.30;0.97;;;21.60;57.00;;;;;;4968961;28;92305;-84
2022/02/17 00:45:18;;;;;;;1.10;0.85;;;21.60;57.00;;;;;;4968614;28;93039;-86
2022/02/17 00:47:50;;;;;;;1.42;0.82;;;21.60;56.90;;;;;;4967622;28;92113;-83
2022/02/17 00:50:16;;;;;;;2.13;0.80;;;21.60;56.90;;;;;;4968242;28;94033;-83
2022/02/17 00:52:42;;;;;;;2.55;0.90;;;21.60;56.70;;;;;;4968521;28;92534;-82
2022/02/17 00:55:08;;;;;;;1.60;0.90;;;21.60;56.80;;;;;;4967939;28;93218;-83
2022/02/17 00:57:34;;;;;;;1.13;0.90;;;21.60;56.70;;;;;;4967735;28;92530;-86
2022/02/17 01:00:00;;;;;;;1.35;0.90;;;21.60;56.70;;;;;;4968068;28;93212;-84
2022/02/17 01:02:26;;;;;;;2.40;1.00;;;21.60;56.70;;;;;;4967676;28;93015;-86
2022/02/17 01:04:51;;;;;;;1.08;0.90;;;21.60;56.70;;;;;;4967230;28;93488;-85
2022/02/17 01:07:17;;;;;;;1.42;0.98;;;21.60;56.50;;;;;;4968012;28;91909;-86
2022/02/17 01:09:43;;;;;;;1.92;0.90;;;21.60;56.50;;;;;;4968364;28;92891;-86
2022/02/17 01:12:09;;;;;;;1.83;1.00;;;21.60;56.40;;;;;;4968318;28;92030;-85
2022/02/17 01:14:34;;;;;;;2.53;1.00;;;21.50;56.30;;;;;;4966944;28;95110;-85
2022/02/17 01:17:00;;;;;;;2.55;1.15;;;21.50;56.30;;;;;;4967804;28;92527;-85
2022/02/17 01:19:26;;;;;;;2.97;1.10;;;21.60;56.20;;;;;;4968201;28;92890;-87
2022/02/17 01:21:52;;;;;;;2.60;1.25;;;21.50;56.00;;;;;;4967169;28;93055;-85
2022/02/17 01:24:17;;;;;;;4.55;1.15;;;21.50;56.10;;;;;;4966998;28;93410;-87
2022/02/17 01:26:43;;;;;;;2.90;1.05;;;21.50;56.00;;;;;;4967049;28;92619;-87
2022/02/17 01:29:12;;;;;;;3.35;1.35;;;21.50;56.00;;;;;;4959526;28;92559;-86
2022/02/17 01:31:37;;;;;;;3.72;1.25;;;21.50;56.00;;;;;;4966235;28;92291;-86
2022/02/17 01:34:08;;;;;;;2.63;1.00;;;21.50;55.70;;;;;;4966479;28;92839;-85
2022/02/17 01:36:34;;;;;;;2.35;1.15;;;21.50;55.60;;;;;;4967184;28;92297;-83
2022/02/17 01:39:00;;;;;;;3.22;1.42;;;21.50;55.80;;;;;;4967576;28;93628;-85
2022/02/17 01:41:28;;;;;;;4.85;1.35;;;21.50;55.60;;;;;;4967946;28;92739;-85
2022/02/17 01:43:54;;;;;;;3.35;1.30;;;21.50;56.00;;;;;;4952879;28;95548;-84
2022/02/17 01:46:39;;;;;;;3.50;1.67;;;21.50;55.40;;;;;;4967265;28;92714;-82
2022/02/17 01:49:06;;;;;;;3.70;1.40;;;21.40;55.30;;;;;;4967869;28;92802;-85
2022/02/17 01:51:32;;;;;;;6.82;1.85;;;21.50;55.10;;;;;;4967686;28;91996;-85
2022/02/17 01:53:59;;;;;;;4.40;1.48;;;21.50;55.30;;;;;;4959748;28;93886;-86
2022/02/17 01:56:25;;;;;;;4.10;1.60;;;21.40;55.00;;;;;;4968005;28;91253;-85
2022/02/17 01:58:52;;;;;;;6.15;2.03;;;21.40;54.80;;;;;;4967493;28;92460;-86
2022/02/17 02:01:19;;;;;;;4.53;1.70;;;21.40;55.10;;;;;;4967717;28;92727;-86
2022/02/17 02:03:47;;;;;;;5.60;1.98;;;21.40;55.00;;;;;;4966390;28;93672;-86
2022/02/17 02:06:12;;;;;;;6.35;2.05;;;21.40;54.80;;;;;;4966337;28;93670;-84
2022/02/17 02:08:38;;;;;;;4.93;1.90;;;21.40;54.80;;;;;;4966312;28;92822;-83
2022/02/17 02:11:06;;;;;;;6.28;2.10;;;21.40;54.70;;;;;;4964859;28;92958;-85
2022/02/17 02:13:31;;;;;;;6.50;1.90;;;21.40;54.50;;;;;;4966371;28;92844;-85
2022/02/17 02:15:57;;;;;;;6.22;2.58;;;21.40;54.30;;;;;;4966280;28;92819;-86
2022/02/17 02:18:23;;;;;;;6.30;2.03;;;21.40;54.20;;;;;;4967645;28;93107;-84
2022/02/17 02:20:57;;;;;;;7.47;2.35;;;21.40;54.30;;;;;;4967219;28;91230;-85
2022/02/17 02:23:23;;;;;;;6.20;2.35;;;21.40;54.20;;;;;;4965792;28;92875;-83
2022/02/17 02:25:51;;;;;;;7.07;2.40;;;21.40;54.30;;;;;;4957543;28;94700;-85
2022/02/17 02:28:19;;;;;;;5.17;2.20;;;21.40;54.20;;;;;;4966127;28;93251;-86
2022/02/17 02:30:46;;;;;;;6.45;1.95;;;21.40;54.20;;;;;;4966753;28;92328;-85
2022/02/17 02:33:12;;;;;;;8.40;2.40;;;21.40;54.00;;;;;;4966951;28;94729;-86
2022/02/17 02:35:39;;;;;;;8.25;2.63;;;21.40;53.90;;;;;;4966423;28;92942;-84
2022/02/17 02:38:05;;;;;;;6.80;2.33;;;21.40;54.60;;;;;;4965574;28;92917;-85
2022/02/17 02:40:30;;;;;;;9.07;2.67;;;21.40;53.90;;;;;;4966916;28;92957;-83
2022/02/17 02:43:01;;;;;;;8.80;2.55;;;21.40;53.90;;;;;;4966632;28;92716;-83
2022/02/17 02:45:29;;;;;;;8.02;2.60;;;21.30;53.90;;;;;;4967336;28;92130;-87
2022/02/17 02:47:55;;;;;;;9.05;2.75;;;21.30;53.80;;;;;;4967361;28;92419;-86
2022/02/17 02:50:21;;;;;;;7.63;2.90;;;21.40;53.70;;;;;;4967404;28;92489;-84
2022/02/17 02:52:47;;;;;;;8.90;2.75;;;21.30;53.50;;;;;;4965043;28;94585;-85
2022/02/17 02:55:12;;;;;;;7.13;3.10;;;21.30;53.50;;;;;;4966381;28;92437;-84
2022/02/17 02:57:38;;;;;;;6.40;2.80;;;21.30;53.40;;;;;;4969923;28;92652;-84
2022/02/17 03:00:08;;;;;;;8.23;3.03;;;21.30;53.30;;;;;;4968989;28;92847;-84
2022/02/17 03:02:34;;;;;;;6.88;2.92;;;21.30;53.40;;;;;;4969530;28;94731;-85
2022/02/17 03:04:59;;;;;;;8.60;3.20;;;21.30;53.30;;;;;;4969676;28;94470;-85
2022/02/17 03:07:25;;;;;;;10.18;3.10;;;21.30;53.30;;;;;;4969287;28;92903;-85
2022/02/17 03:09:50;;;;;;;8.00;2.72;;;21.30;53.30;;;;;;4968756;28;91663;-85
2022/02/17 03:12:16;;;;;;;7.93;3.08;;;21.30;53.00;;;;;;4969755;28;93099;-84
2022/02/17 03:14:42;;;;;;;11.07;3.42;;;21.20;53.00;;;;;;4969549;28;92998;-85
2022/02/17 03:17:08;;;;;;;11.55;3.28;;;21.30;53.00;;;;;;4984595;28;93320;-83
2022/02/17 03:19:34;;;;;;;9.77;3.65;;;21.20;53.10;;;;;;4968980;28;92882;-83
2022/02/17 03:22:00;;;;;;;10.43;3.45;;;21.30;53.00;;;;;;4968999;28;93147;-86
2022/02/17 03:24:26;;;;;;;12.50;3.50;;;21.30;53.10;;;;;;4968624;28;92678;-86
2022/02/17 03:26:51;;;;;;;8.23;3.20;;;21.30;53.10;;;;;;4969815;28;92808;-84
2022/02/17 03:29:24;;;;;;;12.07;3.78;;;21.30;52.90;;;;;;4969893;28;92047;-85
2022/02/17 03:31:50;;;;;;;10.30;3.72;;;21.30;53.00;;;;;;4969410;28;92558;-83
2022/02/17 03:34:15;;;;;;;9.18;3.20;;;21.20;52.90;;;;;;4969625;28;93222;-85
2022/02/17 03:36:41;;;;;;;9.88;3.55;;;21.30;52.70;;;;;;4969123;28;92861;-85
2022/02/17 03:39:06;;;;;;;11.23;3.70;;;21.20;52.80;;;;;;4968951;28;92607;-84
2022/02/17 03:41:32;;;;;;;13.35;3.63;;;21.20;52.80;;;;;;4969148;28;93702;-84
2022/02/17 03:43:58;;;;;;;12.48;3.72;;;21.20;52.70;;;;;;4968227;28;96200;-84
2022/02/17 03:46:23;;;;;;;9.95;3.78;;;21.20;52.60;;;;;;4969438;28;92628;-83
2022/02/17 03:48:49;;;;;;;10.25;3.83;;;21.20;52.60;;;;;;4969480;28;92966;-85
2022/02/17 03:51:15;;;;;;;10.75;3.83;;;21.20;52.50;;;;;;4968889;28;92921;-84
2022/02/17 03:53:40;;;;;;;9.32;4.00;;;21.20;52.40;;;;;;4968399;28;92708;-86
2022/02/17 03:56:06;;;;;;;12.20;4.15;;;21.20;52.40;;;;;;4968994;28;93166;-83
2022/02/17 04:01:16;;;;;;;11.73;3.58;;;21.20;52.20;;;;;;4969031;28;92507;-85
2022/02/17 04:03:42;;;;;;;11.70;3.88;;;21.20;52.20;;;;;;4968904;28;93165;-85
2022/02/17 04:06:17;;;;;;;11.93;3.95;;;21.20;52.20;;;;;;4968526;28;93787;-85
2022/02/17 04:08:43;;;;;;;12.23;4.07;;;21.20;52.20;;;;;;4968314;28;93221;-85
2022/02/17 04:11:08;;;;;;;13.57;4.78;;;21.20;52.20;;;;;;4968554;28;92054;-83
2022/02/17 04:13:34;;;;;;;13.25;4.22;;;21.20;52.00;;;;;;4968668;28;92582;-84
2022/02/17 04:16:00;;;;;;;12.68;4.20;;;21.20;52.10;;;;;;4969182;28;92772;-85
2022/02/17 04:18:26;;;;;;;12.95;4.10;;;21.10;52.00;;;;;;4968159;28;92438;-83
2022/02/17 04:20:52;;;;;;;13.98;4.35;;;21.20;52.00;;;;;;4968643;28;93515;-85
2022/02/17 04:23:18;;;;;;;11.90;4.18;;;21.20;51.90;;;;;;4968552;28;93567;-83
2022/02/17 04:25:44;;;;;;;13.18;4.47;;;21.10;51.80;;;;;;4969252;28;93101;-85
2022/02/17 04:28:10;;;;;;;12.52;3.92;;;21.20;51.80;;;;;;4968076;28;92368;-86
2022/02/17 04:30:35;;;;;;;14.45;4.78;;;21.10;52.00;;;;;;4968234;28;93962;-83
2022/02/17 04:33:02;;;;;;;15.52;5.07;;;21.10;51.80;;;;;;4968081;28;93083;-86
2022/02/17 04:35:28;;;;;;;11.20;3.88;;;21.10;51.90;;;;;;4968017;28;92672;-85
2022/02/17 04:37:54;;;;;;;12.50;4.30;;;21.10;51.80;;;;;;4968460;28;92550;-84
2022/02/17 04:40:20;;;;;;;13.13;4.35;;;21.10;51.70;;;;;;4968118;28;94900;-84
2022/02/17 04:42:45;;;;;;;12.00;4.38;;;21.10;51.80;;;;;;4967880;28;93183;-83
2022/02/17 04:45:11;;;;;;;12.82;4.43;;;21.10;51.80;;;;;;4968949;28;93060;-84
2022/02/17 04:47:36;;;;;;;15.52;4.72;;;21.10;51.70;;;;;;4968297;28;91243;-86
2022/02/17 04:50:03;;;;;;;17.02;4.45;;;21.10;51.60;;;;;;4968403;28;92738;-86
2022/02/17 04:52:47;;;;;;;13.82;3.85;;;21.10;51.70;;;;;;4967788;28;94239;-85
2022/02/17 04:55:12;;;;;;;15.10;4.60;;;21.10;52.30;;;;;;4967523;28;93324;-85
2022/02/17 04:57:38;;;;;;;14.40;4.70;;;21.10;51.80;;;;;;4968163;28;92721;-86
2022/02/17 05:00:07;;;;;;;14.68;5.00;;;21.10;51.70;;;;;;4967425;28;93240;-84
2022/02/17 05:02:33;;;;;;;;;;;21.00;51.50;;;;;;4968554;28;93056;-85
2022/02/17 05:04:59;;;;;;;16.15;4.90;;;21.00;51.50;;;;;;4969906;28;92149;-84
2022/02/17 05:07:24;;;;;;;15.48;4.88;;;21.10;51.40;;;;;;4967721;28;92649;-84
2022/02/17 05:09:50;;;;;;;13.85;5.15;;;21.00;51.50;;;;;;4966950;28;94357;-86
2022/02/17 05:12:18;;;;;;;13.38;4.80;;;21.10;51.30;;;;;;4967385;28;92799;-84
2022/02/17 05:14:44;;;;;;;14.05;4.50;;;21.00;51.30;;;;;;4967034;28;92972;-86
2022/02/17 05:17:09;;;;;;;14.45;5.40;;;21.00;51.30;;;;;;4967736;28;92977;-83
2022/02/17 05:19:36;;;;;;;13.82;4.60;;;21.00;51.30;;;;;;4965772;28;93902;-83
2022/02/17 05:22:02;;;;;;;15.15;5.13;;;21.00;51.30;;;;;;4967312;28;93347;-83
2022/02/17 05:24:28;;;;;;;14.73;5.10;;;21.00;51.30;;;;;;4967973;28;92756;-84
2022/02/17 05:26:54;;;;;;;16.40;4.72;;;21.00;51.00;;;;;;4966854;28;92485;-85
2022/02/17 05:29:29;;;;;;;13.20;4.68;;;21.00;51.10;;;;;;4966885;28;93022;-84
2022/02/17 05:31:55;;;;;;;14.82;5.05;;;21.00;51.20;;;;;;4967036;28;92464;-82
2022/02/17 05:34:21;;;;;;;17.10;4.80;;;21.00;51.10;;;;;;4967836;28;93222;-84
2022/02/17 05:36:47;;;;;;;12.88;5.25;;;21.00;51.00;;;;;;4969744;28;91865;-86
2022/02/17 05:39:12;;;;;;;13.80;4.47;;;21.00;51.00;;;;;;4967173;28;93258;-85
2022/02/17 05:41:38;;;;;;;14.77;5.03;;;21.00;51.10;;;;;;4966903;28;92687;-85
2022/02/17 05:44:05;;;;;;;15.38;5.47;;;21.00;51.00;;;;;;4966431;28;94031;-85
2022/02/17 05:46:30;;;;;;;16.05;5.47;;;21.00;51.10;;;;;;4966353;28;92635;-85
2022/02/17 05:48:56;;;;;;;13.32;4.88;;;21.00;50.90;;;;;;4966152;28;92596;-84
2022/02/17 05:51:22;;;;;;;16.55;5.13;;;21.00;51.00;;;;;;4966823;28;92866;-83
2022/02/17 05:53:48;;;;;;;16.02;5.22;;;21.00;50.90;;;;;;4968013;28;92489;-83
2022/02/17 05:56:14;;;;;;;18.58;5.45;;;21.00;50.90;;;;;;4967813;28;92825;-86
2022/02/17 05:58:39;;;;;;;14.48;5.45;;;21.00;50.70;;;;;;4965464;28;92921;-83
2022/02/17 06:01:05;;;;;;;12.93;4.78;;;21.00;50.80;;;;;;4967168;28;92639;-85
2022/02/17 06:03:31;;;;;;;17.63;5.25;;;21.00;50.70;;;;;;4967981;28;92544;-84
2022/02/17 06:05:57;;;;;;;14.35;5.78;;;21.00;50.70;;;;;;4967979;28;92756;-85
2022/02/17 06:08:23;;;;;;;16.40;5.43;;;21.00;50.80;;;;;;4967565;28;94103;-85
2022/02/17 06:10:50;;;;;;;15.05;5.88;;;20.90;50.70;;;;;;4967783;28;93831;-85
2022/02/17 06:13:16;;;;;;;16.83;5.28;;;20.90;50.70;;;;;;4968014;28;91996;-84
2022/02/17 06:15:49;;;;;;;16.08;5.50;;;21.00;50.60;;;;;;4967961;28;93180;-85
2022/02/17 06:18:14;;;;;;;17.05;5.82;;;20.90;50.60;;;;;;4966731;28;93646;-81
2022/02/17 06:20:40;;;;;;;16.08;5.30;;;20.90;50.50;;;;;;4967419;28;92726;-83
2022/02/17 06:23:05;;;;;;;16.67;5.43;;;20.90;50.40;;;;;;4958179;28;92543;-85
2022/02/17 06:25:31;;;;;;;18.20;5.78;;;20.90;50.50;;;;;;4966566;28;91971;-83
2022/02/17 06:28:00;;;;;;;18.23;5.78;;;20.90;50.60;;;;;;4968077;28;93507;-81
2022/02/17 06:30:26;;;;;;;16.52;5.63;;;20.90;50.50;;;;;;4968523;28;92477;-83
2022/02/17 06:32:55;;;;;;;18.25;5.95;;;20.90;50.60;;;;;;4971509;28;93401;-85
2022/02/17 06:35:23;;;;;;;15.00;5.13;;;20.90;50.50;;;;;;4968436;28;92659;-84
2022/02/17 06:37:50;;;;;;;18.20;5.78;;;20.90;50.40;;;;;;4971001;28;93225;-85
2022/02/17 06:40:16;;;;;;;16.60;5.70;;;20.90;49.70;;;;;;4971027;28;93035;-86
2022/02/17 06:42:41;;;;;;;16.88;5.57;;;20.90;50.00;;;;;;4970783;28;91969;-85
2022/02/17 06:45:08;;;;;;;17.15;5.95;;;20.90;49.70;;;;;;4970978;28;92693;-85
2022/02/17 06:47:33;;;;;;;16.20;5.25;;;20.90;49.40;;;;;;4959469;28;96592;-85
2022/02/17 06:49:59;;;;;;;17.85;5.90;;;20.90;49.50;;;;;;4971142;28;92371;-84
2022/02/17 06:52:24;;;;;;;15.50;5.93;;;20.90;49.80;;;;;;4971127;28;92893;-84
2022/02/17 06:54:50;;;;;;;16.80;5.80;;;20.90;49.60;;;;;;4971049;28;92343;-83
2022/02/17 06:57:21;;;;;;;23.98;6.10;;;20.90;49.50;;;;;;4970609;28;93558;-85
2022/02/17 06:59:50;;;;;;;19.13;6.20;;;20.90;49.20;;;;;;4968021;28;95999;-84
2022/02/17 07:02:24;;;;;;;16.50;5.38;;;20.90;49.30;;;;;;4970209;28;92226;-86
2022/02/17 07:04:50;;;;;;;16.83;5.78;;;20.90;49.60;;;;;;4970569;28;93005;-85
2022/02/17 07:07:16;;;;;;;18.75;6.00;;;20.90;49.40;;;;;;4970407;28;92835;-85
2022/02/17 07:09:42;;;;;;;14.82;5.70;;;20.80;49.80;;;;;;4970371;28;92487;-82
2022/02/17 07:12:08;;;;;;;19.42;6.53;;;20.80;49.90;;;;;;4970031;28;92461;-83
2022/02/17 07:14:34;;;;;;;17.70;6.05;;;20.80;50.00;;;;;;4969667;28;91959;-82
2022/02/17 07:16:59;;;;;;;20.63;6.00;;;20.80;49.80;;;;;;4969781;28;92857;-84
2022/02/17 07:19:25;;;;;;;19.65;6.50;;;20.90;49.70;;;;;;4969274;28;92349;-83
2022/02/17 07:21:51;;;;;;;16.17;5.57;;;20.90;50.30;;;;;;4969052;28;93565;-84
2022/02/17 07:24:18;;;;;;;15.98;5.38;;;20.90;50.20;;;;;;4972478;28;92279;-85
2022/02/17 07:26:44;;;;;;;19.38;5.90;;;20.90;50.20;;;;;;4969458;28;92613;-80
2022/02/17 07:29:11;;;;;;;16.65;5.80;;;21.00;50.40;;;;;;4969201;28;92812;-84
2022/02/17 07:31:36;;;;;;;18.92;5.65;;;21.00;50.60;;;;;;4969033;28;92224;-84
2022/02/17 07:34:03;;;;;;;17.48;6.30;;;21.00;50.60;;;;;;4968108;28;92368;-85
2022/02/17 07:36:38;;;;;;;17.50;5.65;;;21.10;51.00;;;;;;4968851;28;95907;-80
2022/02/17 07:39:05;;;;;;;21.90;6.75;;;21.10;50.70;;;;;;4971476;28;92017;-82
2022/02/17 07:41:37;;;;;;;19.42;5.70;;;21.10;50.60;;;;;;4970090;28;91925;-85
2022/02/17 07:44:04;;;;;;;20.67;6.38;;;21.20;50.60;;;;;;4969383;28;92445;-85
2022/02/17 07:46:31;;;;;;;14.50;5.55;;;21.10;50.80;;;;;;4960570;28;97353;-82
2022/02/17 07:48:57;;;;;;;16.75;6.03;;;21.30;50.70;;;;;;4981796;28;95696;-80
2022/02/17 07:51:22;;;;;;;17.02;6.47;;;21.20;50.30;;;;;;4961705;28;92825;-84
2022/02/17 07:53:48;;;;;;;16.55;6.05;;;21.20;50.20;;;;;;4957630;28;92440;-81
2022/02/17 07:56:15;;;;;;;18.83;6.15;;;21.20;50.10;;;;;;4967768;28;92839;-80
2022/02/17 07:58:41;;;;;;;18.35;6.03;;;21.20;50.30;;;;;;4968418;28;92725;-81
2022/02/17 08:01:08;;;;;;;19.85;6.97;;;21.20;50.10;;;;;;4915378;28;92064;-84
2022/02/17 08:03:33;;;;;;;22.85;6.70;;;21.20;49.70;;;;;;4968492;28;92210;-83
2022/02/17 08:06:00;;;;;;;16.85;5.68;;;21.20;50.00;;;;;;4968600;28;92888;-84
2022/02/17 08:08:25;;;;;;;19.35;5.75;;;21.20;50.00;;;;;;4968422;28;92181;-81
2022/02/17 08:10:53;;;;;;;19.20;6.18;;;21.20;49.90;;;;;;4964573;28;93831;-84
2022/02/17 08:13:26;;;;;;;17.17;6.13;;;21.30;50.50;;;;;;4967657;28;92887;-80
2022/02/17 08:15:52;;;;;;;20.88;6.85;;;21.20;50.10;;;;;;4968233;28;92590;-82
2022/02/17 08:18:18;;;;;;;21.50;6.75;;;21.20;50.10;;;;;;4968986;28;93509;-84
2022/02/17 08:20:45;;;;;;;32.33;8.02;;;21.20;49.30;;;;;;4967258;28;92253;-82
2022/02/17 08:23:11;;;;;;;31.55;7.05;;;21.30;48.50;;;;;;4967946;28;93087;-83
2022/02/17 08:25:37;;;;;;;25.80;7.20;;;21.30;48.40;;;;;;4967991;28;93224;-82
2022/02/17 08:28:03;;;;;;;29.27;7.25;;;21.20;48.40;;;;;;4967949;28;92396;-82
2022/02/17 08:30:29;;;;;;;32.53;8.02;;;21.20;49.70;;;;;;4968235;28;92676;-84
2022/02/17 08:32:57;;;;;;;30.52;8.05;;;21.20;49.20;;;;;;4968325;28;92433;-82
2022/02/17 08:35:24;;;;;;;31.90;8.10;;;21.20;48.80;;;;;;4966789;28;94295;-84
2022/02/17 08:37:49;;;;;;;118.72;21.00;;;21.20;48.50;;;;;;4968241;28;93173;-82
2022/02/17 08:40:15;;;;;;;139.05;26.67;;;21.20;48.50;;;;;;4965728;28;92879;-83
2022/02/17 08:42:42;;;;;;;90.07;17.45;;;21.20;48.40;;;;;;4967727;28;92549;-83
2022/02/17 08:45:09;;;;;;;59.90;14.25;;;21.30;49.00;;;;;;4967022;28;94152;-83
2022/02/17 08:47:35;;;;;;;60.63;14.15;;;21.30;49.30;;;;;;4964499;28;93132;-80
2022/02/17 08:50:08;;;;;;;59.50;14.07;;;21.20;49.30;;;;;;4966967;28;92967;-85
2022/02/17 08:52:35;;;;;;;49.00;11.93;;;21.20;49.20;;;;;;4966316;28;92240;-82
2022/02/17 08:55:01;;;;;;;47.33;12.60;;;21.20;48.50;;;;;;4965329;28;93625;-84
2022/02/17 08:57:26;;;;;;;46.05;11.93;;;21.20;48.00;;;;;;4965851;28;92545;-82
2022/02/17 08:59:52;;;;;;;48.67;12.07;;;21.20;47.70;;;;;;4956320;28;94124;-80
2022/02/17 09:02:18;;;;;;;45.60;12.10;;;21.30;48.10;;;;;;4965656;28;93153;-80
2022/02/17 09:04:43;;;;;;;51.65;12.38;;;21.20;48.20;;;;;;4957033;28;95237;-82
2022/02/17 09:07:09;;;;;;;41.63;10.40;;;21.20;48.40;;;;;;4965926;28;92958;-82
2022/02/17 09:09:35;;;;;;;43.92;11.55;;;21.30;48.40;;;;;;4967206;28;93114;-83
2022/02/17 09:12:00;;;;;;;38.88;11.07;;;21.20;49.00;;;;;;4966858;28;92680;-84
2022/02/17 09:14:26;;;;;;;41.45;11.57;;;21.30;49.40;;;;;;4965491;28;92943;-83
2022/02/17 09:16:53;;;;;;;45.40;11.90;;;21.30;49.40;;;;;;4967409;28;92799;-85
2022/02/17 09:19:19;;;;;;;44.50;9.65;;;21.30;49.40;;;;;;4958457;28;92725;-80
2022/02/17 09:21:44;;;;;;;43.13;10.32;;;21.20;46.80;;;;;;4962699;28;93380;-82
2022/02/17 09:24:10;;;;;;;38.33;10.88;;;21.20;46.30;;;;;;4965126;28;93711;-81
2022/02/17 09:26:36;;;;;;;39.30;10.25;;;21.30;48.20;;;;;;4966644;28;93148;-81
2022/02/17 09:29:06;;;;;;;42.28;10.20;;;21.30;48.90;;;;;;4967085;28;92684;-82
2022/02/17 09:31:31;;;;;;;38.28;10.35;;;21.30;49.20;;;;;;4966706;28;92620;-83
2022/02/17 09:33:57;;;;;;;38.67;11.50;;;21.30;49.70;;;;;;4966265;28;93191;-80
2022/02/17 09:36:28;;;;;;;42.03;11.13;;;21.30;49.70;;;;;;4967180;28;93013;-85
2022/02/17 09:38:57;;;;;;;41.05;11.32;;;21.30;50.30;;;;;;4967550;28;92906;-84
2022/02/17 09:41:24;;;;;;;37.42;10.18;;;21.30;50.30;;;;;;4967253;28;92318;-84
2022/02/17 09:43:51;;;;;;;35.85;10.90;;;21.30;51.40;;;;;;4966740;28;93951;-82
2022/02/17 09:46:22;;;;;;;34.67;10.05;;;21.30;50.80;;;;;;4953811;28;96478;-83
2022/02/17 09:49:01;;;;;;;32.45;10.23;;;21.30;51.00;;;;;;4966786;28;94096;-82
2022/02/17 09:51:27;;;;;;;34.78;10.32;;;21.30;50.20;;;;;;4965810;28;92998;-84
2022/02/17 09:53:54;;;;;;;38.67;9.13;;;21.30;50.70;;;;;;4956982;28;95495;-81
2022/02/17 09:56:23;;;;;;;33.70;10.48;;;21.30;52.80;;;;;;4966696;28;92566;-83
2022/02/17 09:58:50;;;;;;;34.28;10.40;;;21.30;55.20;;;;;;4966025;28;92699;-83
2022/02/17 10:01:27;;;;;;;32.33;8.88;;;21.30;55.20;;;;;;4966438;28;93020;-80
2022/02/17 10:04:10;;;;;;;38.05;9.50;;;21.30;52.70;;;;;;4965839;28;94627;-81
2022/02/17 10:06:42;;;;;;;35.53;10.20;;;21.30;53.70;;;;;;4969627;28;92559;-81
2022/02/17 10:09:08;;;;;;;35.20;10.25;;;21.30;57.10;;;;;;4969475;28;92375;-83
2022/02/17 10:11:34;;;;;;;33.00;9.40;;;21.30;56.50;;;;;;4968316;28;93235;-80
2022/02/17 10:14:07;;;;;;;33.30;10.07;;;21.30;55.20;;;;;;4965075;28;94155;-81
2022/02/17 10:16:53;;;;;;;33.10;9.45;;;21.30;56.70;;;;;;4968065;28;93339;-80
2022/02/17 10:19:23;;;;;;;37.67;10.23;;;21.40;58.60;;;;;;4968554;28;93181;-80
2022/02/17 10:21:50;;;;;;;36.85;9.82;;;21.30;53.40;;;;;;4969395;28;92940;-84
2022/02/17 10:24:38;;;;;;;28.92;8.55;;;21.30;53.10;;;;;;4969560;28;93196;-80
2022/02/17 10:27:13;;;;;;;29.80;9.15;;;21.30;52.30;;;;;;4964972;28;93354;-84
2022/02/17 10:29:40;;;;;;;29.13;9.02;;;21.40;52.40;;;;;;4968647;28;92991;-84
2022/02/17 10:32:07;;;;;;;31.60;9.38;;;21.40;52.40;;;;;;4968362;28;91265;-82
2022/02/17 10:34:32;;;;;;;31.63;9.05;;;21.40;51.80;;;;;;4969060;28;93402;-83
2022/02/17 10:36:58;;;;;;;30.88;8.90;;;21.40;52.00;;;;;;4969166;28;92762;-83
2022/02/17 10:39:36;;;;;;;26.00;8.30;;;21.40;51.90;;;;;;4967729;28;94135;-85
2022/02/17 10:42:07;;;;;;;29.17;7.93;;;21.40;52.10;;;;;;4970352;28;93510;-86
2022/02/17 10:44:38;;;;;;;31.40;8.75;;;21.40;52.20;;;;;;4970785;28;92801;-86
2022/02/17 10:47:14;;;;;;;32.75;8.32;;;21.40;51.80;;;;;;4960404;28;94215;-85
2022/02/17 10:49:42;;;;;;;27.77;8.30;;;21.40;51.60;;;;;;4971002;28;92892;-88
2022/02/17 10:52:08;;;;;;;26.75;8.02;;;21.40;52.60;;;;;;4971240;28;92617;-86
2022/02/17 10:54:33;;;;;;;24.95;8.48;;;21.40;51.30;;;;;;4970126;28;92813;-84
2022/02/17 10:57:04;;;;;;;28.05;8.07;;;21.40;51.60;;;;;;4970629;28;92835;-86
2022/02/17 11:00:00;;;;;;;25.92;7.82;;;21.40;51.80;;;;;;4970309;28;92652;-87
2022/02/17 11:02:27;;;;;;;22.13;7.68;;;21.40;52.00;;;;;;4969844;28;92431;-86
2022/02/17 11:04:53;;;;;;;25.15;7.95;;;21.40;52.30;;;;;;4969599;28;93958;-85
2022/02/17 11:07:20;;;;;;;23.83;7.95;;;21.40;52.10;;;;;;4969951;28;93447;-85
2022/02/17 11:09:47;;;;;;;22.20;6.95;;;21.40;52.30;;;;;;4969834;28;92244;-84
2022/02/17 11:12:14;;;;;;;25.38;8.00;;;21.40;52.20;;;;;;4969457;28;92455;-82
2022/02/17 11:14:49;;;;;;;25.67;8.23;;;21.40;53.30;;;;;;4970572;28;92590;-85
2022/02/17 11:17:15;;;;;;;20.85;7.25;;;21.40;52.40;;;;;;4967218;28;94365;-81
2022/02/17 11:19:43;;;;;;;22.80;7.10;;;21.40;52.30;;;;;;4972295;28;92984;-83
2022/02/17 11:22:12;;;;;;;22.50;6.32;;;21.40;51.50;;;;;;4970947;28;91517;-85
2022/02/17 11:24:54;;;;;;;22.80;6.63;;;21.40;51.10;;;;;;4970541;28;92788;-83
2022/02/17 11:27:21;;;;;;;25.75;7.60;;;21.40;51.60;;;;;;4969182;28;93310;-85
2022/02/17 11:29:48;;;;;;;19.60;6.50;;;21.40;50.80;;;;;;4967845;28;93058;-80
2022/02/17 11:32:20;;;;;;;23.20;6.47;;;21.40;50.10;;;;;;4971094;28;92682;-80
2022/02/17 11:34:55;;;;;;;21.58;7.43;;;21.40;49.20;;;;;;4970557;28;93229;-79
2022/02/17 11:37:30;;;;;;;18.00;6.10;;;21.40;49.60;;;;;;4970254;28;92420;-81
2022/02/17 11:40:10;;;;;;;31.20;7.50;;;21.40;49.50;;;;;;4943515;28;92238;-81
2022/02/17 11:42:47;;;;;;;21.17;7.38;;;21.40;49.70;;;;;;4969177;28;91946;-82
2022/02/17 11:45:17;;;;;;;21.90;6.50;;;21.40;49.80;;;;;;4966792;28;93828;-80
2022/02/17 11:48:04;;;;;;;18.23;6.25;;;21.40;49.90;;;;;;4967526;28;93545;-80
2022/02/17 11:50:44;;;;;;;22.25;6.80;;;21.40;50.40;;;;;;4958188;28;92950;-82
2022/02/17 11:53:30;;;;;;;19.50;6.40;;;21.40;50.80;;;;;;4970056;28;92181;-83
2022/02/17 11:56:15;;;;;;;26.35;7.13;;;21.40;50.80;;;;;;4970373;28;93501;-80
2022/02/17 11:58:41;;;;;;;25.17;6.50;;;21.40;49.60;;;;;;4969489;28;93248;-80
2022/02/17 12:01:25;;;;;;;19.05;6.43;;;21.40;50.20;;;;;;4970581;28;92301;-79
2022/02/17 12:04:09;;;;;;;18.85;5.63;;;21.40;50.70;;;;;;4970434;28;93019;-81
2022/02/17 12:06:38;;;;;;;25.98;6.90;;;21.40;50.90;;;;;;4969265;28;95389;-80
2022/02/17 12:09:06;;;;;;;18.30;6.32;;;21.40;51.30;;;;;;4968817;28;92864;-80
2022/02/17 12:11:36;;;;;;;22.70;6.45;;;21.40;51.80;;;;;;4984320;28;92043;-80
2022/02/17 12:14:07;;;;;;;23.70;7.05;;;21.40;51.60;;;;;;4969934;28;92079;-80
2022/02/17 12:16:33;;;;;;;24.23;8.40;;;21.40;51.50;;;;;;4969729;28;93028;-80
2022/02/17 12:19:18;;;;;;;24.35;7.90;;;21.40;51.30;;;;;;4970680;28;92588;-83
2022/02/17 12:21:45;;;;;;;31.38;9.45;;;21.40;51.80;;;;;;4971492;28;92976;-81
2022/02/17 12:24:13;;;;;;;25.52;8.77;;;21.40;52.40;;;;;;4969411;28;92342;-79
2022/02/17 12:26:47;;;;;;;25.13;8.63;;;21.50;52.80;;;;;;4984616;28;94850;-83
2022/02/17 12:29:30;;;;;;;23.83;7.05;;;21.50;52.80;;;;;;4969670;28;92547;-80
2022/02/17 12:31:58;;;;;;;20.08;7.40;;;21.50;52.10;;;;;;4970860;28;93084;-82
2022/02/17 12:34:30;;;;;;;23.50;8.13;;;21.50;52.30;;;;;;4970554;28;93619;-80
2022/02/17 12:36:58;;;;;;;25.00;7.75;;;21.50;52.60;;;;;;4969591;28;92642;-82
2022/02/17 12:39:30;;;;;;;23.30;7.68;;;21.50;52.90;;;;;;4970579;28;92914;-80
2022/02/17 12:42:07;;;;;;;20.83;7.82;;;21.50;53.20;;;;;;4970199;28;93110;-83
2022/02/17 12:44:35;;;;;;;21.05;7.53;;;21.50;53.70;;;;;;4969557;28;92116;-80